YM Maturity — A8UU8 — position and weather

sailwx.info

Track history (hours):
 
Tides and Currents Weather Stations Pressure Air Temp Water Temp Dewpoint Dewpoint Depression Visibility Wind Speed Wind Dir Waves Ship Positions

YM Maturity

Last reported at 2018-Apr-18 14:53 UTC. Time now 2018-Apr-24 12:48 UTC.
Position N 41°38' E 141°21'.

Length 299 m; draft 11.1 m.

Type: Cargo ship. MMSI: 636014558.

Date/timePositionNaut miles runAvg speedWind from/ knotsBaromVisibWave heightAir tempDewpointWater temp
2018-Apr-18 14:53N 41°38' E 141°21'821.0
2018-Apr-18 14:30N 41°38' E 141°10'1122.7
2018-Apr-18 14:00N 41°37' E 140°55'1122.7
2018-Apr-18 13:30N 41°32' E 140°41'1123.0
2018-Apr-18 13:01N 41°26' E 140°29'1223.2
2018-Apr-18 12:31N 41°19' E 140°16'1121.7
2018-Apr-18 12:00N 41°14' E 140°04'1021.0
2018-Apr-18 11:31N 41°08' E 139°52'1121.1
2018-Apr-18 11:01N 41°01' E 139°41'1121.2
2018-Apr-18 10:31N 40°55' E 139°30'44421.6
2018-Apr-17 14:00N 36°30' E 131°54'   230 / 151020.0 14.0 17.5
2018-Apr-15 05:33N 31°15' E 121°56'1 9.4
2018-Apr-15 05:29N 31°15' E 121°55'19 1.7
2018-Apr-14 18:27N 31°22' E 121°35'0 0.3
2018-Apr-14 17:55N 31°23' E 121°35'1 2.6
2018-Apr-14 17:28N 31°23' E 121°34'0 0.0
2018-Apr-14 15:31N 31°23' E 121°34'0 3.7
2018-Apr-14 15:30N 31°23' E 121°34'3 5.4
2018-Apr-14 14:55N 31°22' E 121°38'15 8.6
2018-Apr-14 13:14N 31°16' E 121°53'210.1
2018-Apr-14 13:01N 31°16' E 121°55'17 8.0
2018-Apr-14 10:50N 31°09' E 122°14'2 6.1
2018-Apr-14 10:29N 31°07' E 122°16'4 6.1
2018-Apr-14 09:45N 31°06' E 122°21'3 8.0
2018-Apr-14 09:24N 31°06' E 122°24'510.2
2018-Apr-14 08:54N 31°07' E 122°30'31 0.9
2018-Apr-12 22:14N 31°26' E 122°58'518.4
2018-Apr-12 21:58N 31°29' E 123°02'510.8
2018-Apr-12 21:30N 31°34' E 123°04'9 9.0
2018-Apr-12 20:29N 31°43' E 123°05'3840.0
2018-Apr-12 19:32N 32°22' E 123°05'0 2.4
2018-Apr-12 19:26N 32°22' E 123°05'2 1.4
2018-Apr-12 18:11N 32°24' E 123°05'0 0.4
2018-Apr-12 17:58N 32°24' E 123°05'0 0.8
2018-Apr-12 17:24N 32°24' E 123°05'0 0.5
2018-Apr-12 17:00N 32°24' E 123°05'3 4.3
2018-Apr-12 16:24N 32°27' E 123°05'410.1
2018-Apr-12 16:00N 32°31' E 123°06'11 9.8
2018-Apr-12 14:55N 32°41' E 123°10'23613.4
2018-Apr-11 21:23N 35°58' E 120°34'612.4
2018-Apr-11 20:53N 35°60' E 120°27'611.4
2018-Apr-11 20:23N 36°01' E 120°20'510.0
2018-Apr-11 19:52N 36°01' E 120°13'1 1.8
2018-Apr-11 19:22N 36°01' E 120°12'0 0.0
2018-Apr-11 18:47N 36°01' E 120°12'0 0.0
2018-Apr-11 18:25N 36°01' E 120°12'0 0.0
2018-Apr-11 17:58N 36°01' E 120°12'0 0.0
2018-Apr-11 17:25N 36°01' E 120°12'0 0.0
2018-Apr-11 16:48N 36°01' E 120°12'0 0.0
2018-Apr-11 15:42N 36°01' E 120°12'0 0.0
2018-Apr-11 15:16N 36°01' E 120°12'0 0.0
2018-Apr-11 14:53N 36°01' E 120°12'0 0.0
2018-Apr-11 14:19N 36°01' E 120°12'0 0.0
2018-Apr-11 12:25N 36°01' E 120°12'0 0.0
2018-Apr-11 11:09N 36°01' E 120°12'0 2.0
2018-Apr-11 10:54N 36°01' E 120°13'6 8.1
2018-Apr-11 10:08N 36°01' E 120°21'1 4.7
2018-Apr-11 09:53N 36°01' E 120°22'145 4.7
2018-Apr-10 02:59N 38°10' E 121°46'613.3
2018-Apr-10 02:30N 38°12' E 121°39'713.6
2018-Apr-10 02:00N 38°16' E 121°32'  
Track history (hours):
 
Tides and Currents Weather Stations Pressure Air Temp Water Temp Dewpoint Dewpoint Depression Visibility Wind Speed Wind Dir Waves Ship Positions

YM Maturity

Last reported at 2018-Apr-18 14:53 UTC. Time now 2018-Apr-24 12:48 UTC.
Position N 41°38' E 141°21'.

Length 299 m; draft 11.1 m.

Type: Cargo ship. MMSI: 636014558.

Date/timePositionNaut miles runAvg speedWind from/ knotsBaromVisibWave heightAir tempDewpointWater temp
2018-Apr-18 14:53N 41°38' E 141°21'821.0
2018-Apr-18 14:30N 41°38' E 141°10'1122.7
2018-Apr-18 14:00N 41°37' E 140°55'1122.7
2018-Apr-18 13:30N 41°32' E 140°41'1123.0
2018-Apr-18 13:01N 41°26' E 140°29'1223.2
2018-Apr-18 12:31N 41°19' E 140°16'1121.7
2018-Apr-18 12:00N 41°14' E 140°04'1021.0
2018-Apr-18 11:31N 41°08' E 139°52'1121.1
2018-Apr-18 11:01N 41°01' E 139°41'1121.2
2018-Apr-18 10:31N 40°55' E 139°30'44421.6
2018-Apr-17 14:00N 36°30' E 131°54'   230 / 151020.0 14.0 17.5
2018-Apr-15 05:33N 31°15' E 121°56'1 9.4
2018-Apr-15 05:29N 31°15' E 121°55'19 1.7
2018-Apr-14 18:27N 31°22' E 121°35'0 0.3
2018-Apr-14 17:55N 31°23' E 121°35'1 2.6
2018-Apr-14 17:28N 31°23' E 121°34'0 0.0
2018-Apr-14 15:31N 31°23' E 121°34'0 3.7
2018-Apr-14 15:30N 31°23' E 121°34'3 5.4
2018-Apr-14 14:55N 31°22' E 121°38'15 8.6
2018-Apr-14 13:14N 31°16' E 121°53'210.1
2018-Apr-14 13:01N 31°16' E 121°55'17 8.0
2018-Apr-14 10:50N 31°09' E 122°14'2 6.1
2018-Apr-14 10:29N 31°07' E 122°16'4 6.1
2018-Apr-14 09:45N 31°06' E 122°21'3 8.0
2018-Apr-14 09:24N 31°06' E 122°24'510.2
2018-Apr-14 08:54N 31°07' E 122°30'31 0.9
2018-Apr-12 22:14N 31°26' E 122°58'518.4
2018-Apr-12 21:58N 31°29' E 123°02'510.8
2018-Apr-12 21:30N 31°34' E 123°04'9 9.0
2018-Apr-12 20:29N 31°43' E 123°05'3840.0
2018-Apr-12 19:32N 32°22' E 123°05'0 2.4
2018-Apr-12 19:26N 32°22' E 123°05'2 1.4
2018-Apr-12 18:11N 32°24' E 123°05'0 0.4
2018-Apr-12 17:58N 32°24' E 123°05'0 0.8
2018-Apr-12 17:24N 32°24' E 123°05'0 0.5
2018-Apr-12 17:00N 32°24' E 123°05'3 4.3
2018-Apr-12 16:24N 32°27' E 123°05'410.1
2018-Apr-12 16:00N 32°31' E 123°06'11 9.8
2018-Apr-12 14:55N 32°41' E 123°10'23613.4
2018-Apr-11 21:23N 35°58' E 120°34'612.4
2018-Apr-11 20:53N 35°60' E 120°27'611.4
2018-Apr-11 20:23N 36°01' E 120°20'510.0
2018-Apr-11 19:52N 36°01' E 120°13'1 1.8
2018-Apr-11 19:22N 36°01' E 120°12'0 0.0
2018-Apr-11 18:47N 36°01' E 120°12'0 0.0
2018-Apr-11 18:25N 36°01' E 120°12'0 0.0
2018-Apr-11 17:58N 36°01' E 120°12'0 0.0
2018-Apr-11 17:25N 36°01' E 120°12'0 0.0
2018-Apr-11 16:48N 36°01' E 120°12'0 0.0
2018-Apr-11 15:42N 36°01' E 120°12'0 0.0
2018-Apr-11 15:16N 36°01' E 120°12'0 0.0
2018-Apr-11 14:53N 36°01' E 120°12'0 0.0
2018-Apr-11 14:19N 36°01' E 120°12'0 0.0
2018-Apr-11 12:25N 36°01' E 120°12'0 0.0
2018-Apr-11 11:09N 36°01' E 120°12'0 2.0
2018-Apr-11 10:54N 36°01' E 120°13'6 8.1
2018-Apr-11 10:08N 36°01' E 120°21'1 4.7
2018-Apr-11 09:53N 36°01' E 120°22'145 4.7
2018-Apr-10 02:59N 38°10' E 121°46'613.3
2018-Apr-10 02:30N 38°12' E 121°39'713.6
2018-Apr-10 02:00N 38°16' E 121°32'  

Dump ship's entire track history